createdAt,value
2022-09-15T00:00:27.238Z,46.20
2022-09-15T00:01:27.270Z,46.01
2022-09-15T00:02:27.449Z,46.01
2022-09-15T00:03:27.203Z,46.01
2022-09-15T00:04:27.191Z,46.01
2022-09-15T00:05:27.195Z,46.01
2022-09-15T00:06:27.171Z,46.01
2022-09-15T00:07:27.159Z,46.01
2022-09-15T00:08:27.147Z,46.01
2022-09-15T00:09:27.134Z,46.01
2022-09-15T00:10:27.124Z,45.71
2022-09-15T00:11:27.132Z,45.90
2022-09-15T00:12:27.102Z,45.81
2022-09-15T00:13:27.089Z,45.90
2022-09-15T00:14:27.078Z,45.90
2022-09-15T00:15:27.067Z,46.01
2022-09-15T00:16:27.156Z,45.71
2022-09-15T00:17:27.066Z,45.61
2022-09-15T00:18:27.051Z,46.01
2022-09-15T00:19:27.023Z,46.01
2022-09-15T00:20:27.012Z,45.90
2022-09-15T00:21:27.000Z,45.71
2022-09-15T00:22:26.988Z,45.68
2022-09-15T00:23:26.985Z,46.20
2022-09-15T00:24:26.967Z,45.61
2022-09-15T00:25:26.954Z,46.20
2022-09-15T00:26:26.943Z,45.90
2022-09-15T00:27:26.933Z,45.81
2022-09-15T00:28:26.921Z,45.71
2022-09-15T00:29:26.915Z,45.81
2022-09-15T00:30:27.034Z,45.90
2022-09-15T00:31:26.966Z,45.90
2022-09-15T00:32:26.880Z,45.90
2022-09-15T00:33:26.871Z,46.20
2022-09-15T00:34:26.871Z,45.81
2022-09-15T00:35:26.861Z,45.71
2022-09-15T00:36:26.833Z,45.90
2022-09-15T00:37:26.823Z,45.61
2022-09-15T00:38:26.808Z,45.90
2022-09-15T00:39:26.796Z,45.90
2022-09-15T00:40:26.871Z,45.90
2022-09-15T00:41:26.850Z,45.81
2022-09-15T00:42:26.765Z,45.81
2022-09-15T00:43:26.752Z,45.90
2022-09-15T00:44:26.743Z,45.90
2022-09-15T00:45:26.781Z,45.90
2022-09-15T00:46:26.718Z,45.90
2022-09-15T00:47:26.713Z,45.90
2022-09-15T00:48:26.698Z,45.90
2022-09-15T00:49:26.685Z,45.90
2022-09-15T00:50:26.695Z,45.90
2022-09-15T00:51:26.663Z,45.71
2022-09-15T00:52:26.651Z,45.90
2022-09-15T00:53:26.660Z,45.71
2022-09-15T00:54:26.628Z,45.90
2022-09-15T00:55:26.618Z,46.01
2022-09-15T00:56:26.605Z,45.81
2022-09-15T00:57:26.593Z,45.71
2022-09-15T00:58:26.584Z,46.01
2022-09-15T00:59:26.580Z,45.90
2022-09-15T01:00:26.559Z,45.51
2022-09-15T01:01:26.668Z,45.81
2022-09-15T01:02:26.672Z,46.01
2022-09-15T01:03:26.534Z,46.01
2022-09-15T01:04:26.515Z,46.20
2022-09-15T01:05:26.532Z,45.90
2022-09-15T01:06:26.512Z,45.81
2022-09-15T01:07:26.481Z,45.90
2022-09-15T01:08:26.470Z,46.01
2022-09-15T01:09:26.461Z,46.01
2022-09-15T01:10:26.447Z,45.81
2022-09-15T01:11:26.442Z,46.01
2022-09-15T01:12:26.425Z,45.81
2022-09-15T01:13:26.413Z,46.01
2022-09-15T01:14:26.402Z,45.90
2022-09-15T01:15:26.390Z,45.90
2022-09-15T01:16:26.484Z,45.90
2022-09-15T01:17:26.385Z,46.11
2022-09-15T01:18:26.360Z,45.81
2022-09-15T01:19:26.347Z,46.20
2022-09-15T01:20:26.336Z,46.01
2022-09-15T01:21:26.325Z,45.90
2022-09-15T01:22:26.394Z,45.81
2022-09-15T01:23:26.330Z,45.83
2022-09-15T01:24:26.290Z,46.01
2022-09-15T01:25:26.280Z,46.11
2022-09-15T01:26:26.270Z,46.20
2022-09-15T01:27:41.672Z,45.71
2022-09-15T01:28:27.265Z,45.81
2022-09-15T01:29:26.234Z,46.11
2022-09-15T01:30:26.223Z,45.81
2022-09-15T01:31:26.249Z,45.90
2022-09-15T01:32:26.201Z,46.11
2022-09-15T01:33:26.189Z,45.81
2022-09-15T01:34:26.185Z,45.90
2022-09-15T01:35:26.168Z,46.01
2022-09-15T01:36:26.156Z,45.90
2022-09-15T01:37:26.144Z,45.90
2022-09-15T01:38:26.153Z,45.71
2022-09-15T01:39:26.122Z,46.31
2022-09-15T01:40:26.168Z,45.90
2022-09-15T01:41:26.099Z,45.90
2022-09-15T01:42:26.091Z,46.11
2022-09-15T01:43:26.076Z,46.41
2022-09-15T01:44:26.065Z,46.41
2022-09-15T01:45:26.073Z,46.01
2022-09-15T01:46:26.048Z,45.81
2022-09-15T01:47:26.031Z,46.31
2022-09-15T01:48:26.022Z,46.11
2022-09-15T01:49:26.010Z,46.01
2022-09-15T01:50:25.997Z,46.41
2022-09-15T01:51:25.986Z,45.61
2022-09-15T01:52:25.990Z,46.41
2022-09-15T01:53:25.963Z,45.81
2022-09-15T01:54:25.972Z,46.50
2022-09-15T01:55:25.942Z,45.81
2022-09-15T01:56:25.930Z,46.31
2022-09-15T01:57:25.919Z,45.63
2022-09-15T01:58:25.929Z,46.33
2022-09-15T01:59:25.899Z,46.50
2022-09-15T02:00:25.890Z,46.33
2022-09-15T02:01:25.927Z,46.50
2022-09-15T02:02:25.992Z,46.50
2022-09-15T02:03:25.851Z,46.31
2022-09-15T02:04:25.873Z,46.50
2022-09-15T02:05:25.836Z,46.31
2022-09-15T02:06:25.823Z,46.50
2022-09-15T02:07:25.805Z,46.33
2022-09-15T02:08:25.794Z,46.31
2022-09-15T02:09:25.784Z,46.31
2022-09-15T02:10:25.814Z,46.50
2022-09-15T02:11:25.765Z,46.41
2022-09-15T02:12:25.753Z,46.50
2022-09-15T02:13:25.740Z,46.50
2022-09-15T02:14:25.748Z,46.01
2022-09-15T02:15:25.726Z,46.42
2022-09-15T02:16:25.800Z,46.50
2022-09-15T02:17:25.695Z,46.03
2022-09-15T02:18:25.688Z,46.50
2022-09-15T02:19:25.673Z,46.60
2022-09-15T02:20:25.671Z,46.53
2022-09-15T02:21:25.647Z,46.53
2022-09-15T02:22:25.643Z,46.70
2022-09-15T02:23:25.626Z,46.62
2022-09-15T02:24:25.615Z,46.62
2022-09-15T02:25:25.602Z,46.53
2022-09-15T02:26:25.618Z,46.53
2022-09-15T02:27:25.580Z,45.71
2022-09-15T02:28:25.590Z,46.50
2022-09-15T02:29:25.558Z,45.93
2022-09-15T02:30:25.550Z,46.72
2022-09-15T02:31:25.610Z,46.23
2022-09-15T02:32:25.526Z,46.03
2022-09-15T02:33:25.513Z,46.23
2022-09-15T02:34:25.508Z,46.03
2022-09-15T02:35:25.492Z,46.53
2022-09-15T02:36:25.482Z,46.20
2022-09-15T02:37:25.468Z,46.72
2022-09-15T02:38:25.457Z,46.83
2022-09-15T02:39:25.448Z,46.33
2022-09-15T02:40:25.578Z,46.01
2022-09-15T02:41:25.426Z,46.83
2022-09-15T02:42:25.434Z,46.23
2022-09-15T02:43:25.399Z,46.23
2022-09-15T02:44:25.391Z,46.23
2022-09-15T02:45:25.412Z,46.62
2022-09-15T02:46:25.398Z,46.23
2022-09-15T02:47:25.355Z,46.83
2022-09-15T02:48:25.343Z,46.31
2022-09-15T02:49:25.333Z,46.83
2022-09-15T02:50:25.321Z,46.23
2022-09-15T02:51:25.310Z,46.92
2022-09-15T02:52:25.306Z,46.03
2022-09-15T02:53:25.287Z,46.90
2022-09-15T02:54:25.283Z,46.33
2022-09-15T02:55:25.264Z,46.33
2022-09-15T02:56:25.253Z,46.23
2022-09-15T02:57:25.242Z,46.13
2022-09-15T02:58:25.257Z,46.23
2022-09-15T02:59:25.223Z,46.42
2022-09-15T03:00:25.211Z,46.23
2022-09-15T03:01:25.221Z,46.13
2022-09-15T03:02:25.300Z,46.23
2022-09-15T03:03:25.174Z,46.83
2022-09-15T03:04:25.181Z,46.33
2022-09-15T03:05:25.153Z,46.23
2022-09-15T03:06:25.141Z,46.23
2022-09-15T03:07:25.129Z,46.33
2022-09-15T03:08:25.119Z,46.23
2022-09-15T03:09:25.107Z,46.23
2022-09-15T03:10:25.122Z,46.23
2022-09-15T03:11:25.085Z,46.23
2022-09-15T03:12:25.074Z,46.23
2022-09-15T03:13:25.062Z,46.23
2022-09-15T03:14:25.072Z,46.23
2022-09-15T03:15:25.046Z,46.23
2022-09-15T03:16:25.132Z,46.13
2022-09-15T03:17:25.016Z,46.03
2022-09-15T03:18:25.005Z,46.03
2022-09-15T03:19:24.994Z,46.33
2022-09-15T03:20:24.983Z,46.03
2022-09-15T03:21:24.973Z,46.03
2022-09-15T03:22:24.981Z,46.33
2022-09-15T03:23:24.949Z,46.03
2022-09-15T03:24:24.938Z,46.23
2022-09-15T03:25:24.927Z,46.03
2022-09-15T03:26:24.919Z,46.13
2022-09-15T03:27:24.904Z,46.13
2022-09-15T03:28:24.901Z,46.23
2022-09-15T03:29:24.881Z,46.13
2022-09-15T03:30:24.888Z,46.03
2022-09-15T03:31:24.949Z,46.23
2022-09-15T03:32:24.848Z,46.23
2022-09-15T03:33:24.836Z,46.13
2022-09-15T03:34:24.833Z,46.33
2022-09-15T03:35:24.814Z,46.33
2022-09-15T03:36:24.802Z,46.33
2022-09-15T03:37:24.791Z,46.03
2022-09-15T03:38:24.780Z,46.03
2022-09-15T03:39:24.770Z,46.23
2022-09-15T03:40:24.882Z,46.03
2022-09-15T03:41:24.746Z,46.23
2022-09-15T03:42:24.735Z,46.03
2022-09-15T03:43:24.728Z,46.13
2022-09-15T03:44:24.713Z,46.03
2022-09-15T03:45:24.732Z,46.23
2022-09-15T03:46:24.717Z,46.03
2022-09-15T03:47:24.681Z,46.23
2022-09-15T03:48:24.669Z,46.23
2022-09-15T03:49:24.655Z,46.03
2022-09-15T03:50:24.645Z,46.03
2022-09-15T03:51:24.633Z,46.03
2022-09-15T03:52:24.652Z,45.93
2022-09-15T03:53:24.611Z,46.03
2022-09-15T03:54:24.600Z,45.93
2022-09-15T03:55:24.589Z,46.13
2022-09-15T03:56:24.578Z,46.13
2022-09-15T03:57:24.570Z,46.33
2022-09-15T03:58:27.856Z,46.23
2022-09-15T03:59:25.553Z,46.13
2022-09-15T04:00:24.532Z,46.03
2022-09-15T04:01:24.520Z,46.03
2022-09-15T04:02:24.604Z,46.03
2022-09-15T04:03:24.499Z,46.03
2022-09-15T04:04:24.494Z,46.33
2022-09-15T04:05:24.476Z,46.23
2022-09-15T04:06:24.465Z,46.03
2022-09-15T04:07:24.453Z,46.13
2022-09-15T04:08:24.441Z,46.03
2022-09-15T04:09:24.435Z,46.03
2022-09-15T04:10:24.428Z,46.03
2022-09-15T04:11:24.410Z,46.13
2022-09-15T04:12:24.398Z,46.03
2022-09-15T04:13:28.423Z,46.13
2022-09-15T04:14:24.375Z,46.13
2022-09-15T04:15:24.363Z,45.83
2022-09-15T04:16:24.516Z,45.93
2022-09-15T04:17:24.343Z,46.33
2022-09-15T04:18:24.354Z,46.03
2022-09-15T04:19:24.319Z,46.13
2022-09-15T04:20:24.307Z,46.23
2022-09-15T04:21:24.297Z,46.53
2022-09-15T04:22:24.300Z,46.13
2022-09-15T04:23:24.275Z,46.13
2022-09-15T04:24:24.273Z,46.03
2022-09-15T04:25:24.251Z,46.13
2022-09-15T04:26:24.249Z,46.13
2022-09-15T04:27:24.228Z,46.03
2022-09-15T04:28:24.248Z,46.23
2022-09-15T04:29:24.206Z,46.03
2022-09-15T04:31:42.293Z,46.03
2022-09-15T04:32:42.215Z,46.13
2022-09-15T04:33:42.241Z,46.13
2022-09-15T04:34:42.190Z,46.33
2022-09-15T04:35:42.178Z,46.03
2022-09-15T04:36:42.169Z,45.83
2022-09-15T04:37:42.157Z,46.13
2022-09-15T04:38:42.187Z,46.23
2022-09-15T04:39:42.140Z,46.13
2022-09-15T04:40:42.126Z,46.03
2022-09-15T04:41:42.115Z,46.13
2022-09-15T04:42:42.100Z,46.13
2022-09-15T04:43:42.090Z,46.03
2022-09-15T04:44:42.079Z,45.83
2022-09-15T04:45:42.088Z,46.33
2022-09-15T04:46:42.071Z,46.03
2022-09-15T04:47:42.046Z,46.13
2022-09-15T04:48:42.036Z,46.03
2022-09-15T04:49:42.046Z,46.03
2022-09-15T04:50:42.013Z,46.13
2022-09-15T04:51:42.017Z,46.33
2022-09-15T04:52:41.991Z,46.03
2022-09-15T04:53:42.085Z,46.13
2022-09-15T04:54:41.969Z,46.03
2022-09-15T04:55:41.958Z,46.33
2022-09-15T04:56:41.946Z,46.03
2022-09-15T04:57:41.972Z,46.03
2022-09-15T04:58:41.924Z,46.23
2022-09-15T04:59:41.913Z,46.33
2022-09-15T05:00:41.933Z,46.03
2022-09-15T05:01:41.961Z,46.23
2022-09-15T05:02:41.880Z,46.23
2022-09-15T05:03:41.876Z,46.03
2022-09-15T05:04:41.859Z,46.33
2022-09-15T05:05:41.870Z,46.03
2022-09-15T05:06:41.836Z,45.83
2022-09-15T05:07:41.825Z,46.03
2022-09-15T05:08:41.858Z,46.83
2022-09-15T05:09:41.808Z,46.33
2022-09-15T05:10:41.791Z,45.83
2022-09-15T05:11:41.781Z,46.03
2022-09-15T05:12:41.770Z,46.23
2022-09-15T05:13:41.758Z,45.83
2022-09-15T05:14:41.747Z,46.23
2022-09-15T05:15:41.743Z,46.72
2022-09-15T05:16:41.753Z,46.72
2022-09-15T05:17:41.714Z,46.23
2022-09-15T05:18:41.706Z,46.62
2022-09-15T05:19:41.693Z,46.62
2022-09-15T05:20:41.681Z,46.62
2022-09-15T05:21:41.714Z,45.93
2022-09-15T05:22:42.116Z,46.53
2022-09-15T05:23:41.763Z,46.33
2022-09-15T05:24:41.637Z,46.33
2022-09-15T05:25:41.626Z,46.53
2022-09-15T05:26:41.616Z,46.53
2022-09-15T05:27:41.620Z,45.93
2022-09-15T05:28:41.593Z,45.83
2022-09-15T05:29:41.586Z,45.73
2022-09-15T05:30:44.450Z,46.13
2022-09-15T05:31:41.618Z,46.72
2022-09-15T05:32:41.549Z,46.13
2022-09-15T05:33:41.544Z,45.63
2022-09-15T05:34:41.526Z,46.42
2022-09-15T05:35:41.515Z,45.93
2022-09-15T05:36:41.504Z,46.62
2022-09-15T05:37:41.513Z,46.53
2022-09-15T05:38:41.549Z,46.03
2022-09-15T05:39:41.476Z,45.93
2022-09-15T05:40:41.462Z,46.13
2022-09-15T05:41:41.449Z,46.13
2022-09-15T05:42:41.445Z,46.03
2022-09-15T05:43:41.428Z,46.01
2022-09-15T05:44:41.416Z,46.03
2022-09-15T05:45:41.410Z,45.83
2022-09-15T05:46:41.475Z,45.93
2022-09-15T05:47:41.382Z,45.93
2022-09-15T05:48:41.372Z,45.93
2022-09-15T05:49:41.360Z,45.93
2022-09-15T05:50:41.350Z,45.93
2022-09-15T05:51:41.348Z,46.13
2022-09-15T05:52:41.328Z,45.83
2022-09-15T05:53:41.383Z,45.63
2022-09-15T05:54:41.305Z,45.83
2022-09-15T05:55:41.294Z,45.83
2022-09-15T05:56:41.283Z,45.81
2022-09-15T05:57:41.281Z,45.93
2022-09-15T05:58:41.262Z,45.81
2022-09-15T05:59:41.250Z,46.01
2022-09-15T06:00:41.239Z,46.01
2022-09-15T06:01:41.269Z,46.23
2022-09-15T06:02:41.248Z,46.01
2022-09-15T06:03:41.237Z,45.71
2022-09-15T06:04:41.194Z,46.01
2022-09-15T06:05:41.186Z,46.03
2022-09-15T06:06:41.172Z,46.01
2022-09-15T06:07:41.161Z,46.01
2022-09-15T06:08:44.088Z,46.31
2022-09-15T06:09:41.167Z,46.20
2022-09-15T06:10:41.128Z,45.81
2022-09-15T06:11:41.117Z,46.11
2022-09-15T06:12:41.106Z,46.01
2022-09-15T06:13:41.095Z,46.01
2022-09-15T06:14:41.084Z,46.01
2022-09-15T06:15:41.082Z,45.61
2022-09-15T06:16:41.150Z,46.31
2022-09-15T06:17:41.051Z,46.31
2022-09-15T06:18:41.120Z,45.81
2022-09-15T06:19:41.030Z,45.61
2022-09-15T06:20:41.019Z,45.81
2022-09-15T06:21:41.028Z,46.11
2022-09-15T06:22:40.995Z,45.81
2022-09-15T06:23:40.984Z,46.60
2022-09-15T06:24:40.973Z,46.41
2022-09-15T06:25:40.983Z,45.81
2022-09-15T06:26:40.951Z,46.11
2022-09-15T06:27:40.968Z,46.20
2022-09-15T06:28:40.929Z,46.11
2022-09-15T06:29:40.917Z,45.90
2022-09-15T06:30:40.907Z,45.90
2022-09-15T06:31:40.925Z,45.90
2022-09-15T06:32:42.474Z,46.01
2022-09-15T06:33:41.004Z,45.81
2022-09-15T06:34:40.862Z,45.81
2022-09-15T06:35:40.852Z,46.11
2022-09-15T06:36:40.841Z,46.20
2022-09-15T06:37:40.829Z,45.61
2022-09-15T06:38:40.819Z,45.61
2022-09-15T06:39:40.814Z,45.61
2022-09-15T06:40:40.799Z,45.90
2022-09-15T06:42:01.170Z,45.81
2022-09-15T06:42:41.773Z,45.71
2022-09-15T06:43:40.762Z,45.81
2022-09-15T06:44:40.754Z,45.71
2022-09-15T06:45:40.814Z,45.61
2022-09-15T06:46:40.730Z,45.61
2022-09-15T06:47:40.718Z,45.31
2022-09-15T06:48:40.708Z,45.11
2022-09-15T06:49:40.696Z,45.51
2022-09-15T06:50:40.685Z,45.29
2022-09-15T06:51:40.681Z,45.98
2022-09-15T06:52:40.665Z,45.29
2022-09-15T06:53:40.653Z,45.31
2022-09-15T06:54:40.641Z,45.89
2022-09-15T06:55:40.631Z,45.29
2022-09-15T06:56:40.619Z,44.79
2022-09-15T06:57:40.632Z,44.89
2022-09-15T06:58:40.596Z,44.79
2022-09-15T06:59:40.586Z,44.79
2022-09-15T07:00:40.576Z,44.99
2022-09-15T07:01:40.564Z,44.79
2022-09-15T07:02:40.682Z,44.79
2022-09-15T07:03:40.577Z,44.59
2022-09-15T07:04:40.530Z,44.59
2022-09-15T07:05:40.520Z,44.59
2022-09-15T07:06:40.511Z,44.59
2022-09-15T07:07:40.498Z,44.79
2022-09-15T07:08:40.490Z,44.79
2022-09-15T07:09:41.411Z,44.99
2022-09-15T07:10:40.464Z,44.70
2022-09-15T07:11:40.453Z,44.79
2022-09-15T07:12:40.442Z,45.29
2022-09-15T07:13:40.450Z,45.39
2022-09-15T07:14:40.422Z,44.99
2022-09-15T07:15:40.418Z,45.19
2022-09-15T07:16:40.451Z,45.19
2022-09-15T07:17:40.387Z,44.40
2022-09-15T07:18:43.293Z,44.97
2022-09-15T07:19:40.366Z,44.20
2022-09-15T07:20:40.355Z,44.29
2022-09-15T07:21:40.352Z,44.20
2022-09-15T07:22:40.334Z,44.40
2022-09-15T07:23:40.321Z,44.29
2022-09-15T07:24:40.309Z,44.29
2022-09-15T07:25:40.299Z,44.49
2022-09-15T07:26:40.287Z,44.37
2022-09-15T07:27:40.299Z,44.57
2022-09-15T07:28:40.265Z,44.48
2022-09-15T07:29:40.275Z,44.77
2022-09-15T07:30:40.246Z,44.87
2022-09-15T07:31:40.282Z,44.67
2022-09-15T07:32:40.222Z,44.67
2022-09-15T07:33:40.225Z,45.07
2022-09-15T07:34:40.199Z,44.87
2022-09-15T07:35:40.188Z,44.77
2022-09-15T07:36:40.178Z,45.17
2022-09-15T07:37:40.166Z,45.07
2022-09-15T07:38:40.155Z,44.67
2022-09-15T07:39:40.173Z,44.67
2022-09-15T07:40:40.133Z,44.67
2022-09-15T07:41:40.124Z,44.67
2022-09-15T07:42:40.111Z,44.48
2022-09-15T07:43:40.107Z,44.67
2022-09-15T07:44:40.090Z,44.55
2022-09-15T07:45:40.203Z,44.55
2022-09-15T07:46:40.067Z,44.45
2022-09-15T07:47:40.057Z,44.45
2022-09-15T07:48:40.044Z,44.35
2022-09-15T07:49:40.037Z,44.35
2022-09-15T07:50:40.024Z,44.35
2022-09-15T07:51:40.027Z,44.55
2022-09-15T07:52:40.002Z,44.77
2022-09-15T07:53:39.989Z,44.55
2022-09-15T07:54:39.979Z,44.15
2022-09-15T07:55:39.967Z,44.25
2022-09-15T07:56:39.957Z,44.35
2022-09-15T07:57:39.965Z,44.15
2022-09-15T07:58:39.933Z,44.35
2022-09-15T07:59:41.328Z,44.25
2022-09-15T08:00:39.965Z,44.25
2022-09-15T08:01:40.008Z,44.25
2022-09-15T08:02:39.892Z,44.35
2022-09-15T08:03:39.886Z,43.85
2022-09-15T08:04:39.868Z,44.25
2022-09-15T08:05:44.808Z,44.45
2022-09-15T08:06:40.849Z,44.35
2022-09-15T08:07:39.834Z,44.45
2022-09-15T08:08:39.823Z,44.55
2022-09-15T08:09:39.818Z,44.15
2022-09-15T08:10:39.802Z,44.15
2022-09-15T08:11:39.790Z,44.06
2022-09-15T08:12:39.780Z,44.06
2022-09-15T08:13:39.773Z,43.76
2022-09-15T08:14:39.757Z,43.85
2022-09-15T08:15:39.752Z,43.93
2022-09-15T08:16:39.793Z,43.93
2022-09-15T08:17:39.744Z,43.74
2022-09-15T08:18:39.714Z,43.74
2022-09-15T08:19:39.702Z,43.84
2022-09-15T08:20:39.695Z,43.54
2022-09-15T08:21:39.686Z,43.44
2022-09-15T08:22:39.669Z,43.74
2022-09-15T08:23:39.657Z,43.74
2022-09-15T08:24:39.653Z,43.64
2022-09-15T08:25:39.638Z,44.04
2022-09-15T08:26:39.624Z,43.84
2022-09-15T08:27:39.626Z,43.84
2022-09-15T08:28:39.604Z,43.84
2022-09-15T08:29:39.593Z,43.84
2022-09-15T08:30:39.580Z,43.74
2022-09-15T08:31:39.634Z,44.04
2022-09-15T08:32:39.558Z,43.14
2022-09-15T08:33:43.333Z,43.84
2022-09-15T08:34:40.535Z,43.54
2022-09-15T08:35:39.524Z,43.32
2022-09-15T08:36:39.514Z,43.34
2022-09-15T08:37:39.504Z,43.04
2022-09-15T08:38:39.491Z,42.94
2022-09-15T08:39:39.487Z,42.94
2022-09-15T08:40:39.471Z,43.12
2022-09-15T08:41:39.460Z,42.92
2022-09-15T08:42:44.215Z,43.14
2022-09-15T08:43:40.435Z,43.34
2022-09-15T08:44:39.426Z,42.92
2022-09-15T08:45:39.431Z,43.22
2022-09-15T08:46:39.486Z,43.22
2022-09-15T08:47:39.399Z,43.02
2022-09-15T08:48:39.383Z,43.02
2022-09-15T08:49:51.010Z,42.92
2022-09-15T08:50:40.374Z,42.92
2022-09-15T08:51:39.352Z,42.92
2022-09-15T08:52:39.337Z,43.22
2022-09-15T08:53:39.327Z,43.22
2022-09-15T08:54:39.315Z,42.63
2022-09-15T08:55:39.307Z,42.92
2022-09-15T08:56:39.307Z,42.63
2022-09-15T08:57:39.286Z,42.82
2022-09-15T08:58:39.271Z,42.82
2022-09-15T08:59:39.259Z,42.82
2022-09-15T09:00:39.249Z,42.92
2022-09-15T09:01:39.314Z,42.92
2022-09-15T09:02:39.269Z,42.92
2022-09-15T09:03:39.215Z,42.72
2022-09-15T09:04:39.206Z,42.92
2022-09-15T09:05:39.213Z,43.12
2022-09-15T09:06:39.183Z,42.72
2022-09-15T09:07:39.173Z,42.72
2022-09-15T09:08:39.167Z,42.63
2022-09-15T09:09:39.149Z,42.52
2022-09-15T09:10:39.138Z,43.12
2022-09-15T09:11:39.127Z,42.82
2022-09-15T09:12:39.117Z,42.72
2022-09-15T09:13:39.114Z,42.72
2022-09-15T09:14:39.109Z,43.22
2022-09-15T09:15:39.155Z,42.72
2022-09-15T09:16:39.072Z,42.92
2022-09-15T09:17:39.062Z,43.32
2022-09-15T09:18:39.050Z,43.02
2022-09-15T09:19:39.041Z,42.63
2022-09-15T09:20:39.034Z,42.72
2022-09-15T09:21:39.040Z,43.12
2022-09-15T09:22:39.007Z,43.22
2022-09-15T09:23:38.997Z,43.12
2022-09-15T09:24:38.989Z,43.22
2022-09-15T09:25:38.973Z,42.72
2022-09-15T09:26:38.969Z,42.72
2022-09-15T09:27:38.955Z,42.92
2022-09-15T09:28:38.940Z,43.12
2022-09-15T09:29:38.928Z,43.12
2022-09-15T09:30:38.990Z,43.22
2022-09-15T09:31:38.907Z,42.63
2022-09-15T09:32:38.902Z,42.63
2022-09-15T09:33:39.730Z,42.52
2022-09-15T09:34:38.873Z,42.63
2022-09-15T09:35:38.865Z,42.63
2022-09-15T09:36:38.851Z,42.63
2022-09-15T09:37:38.858Z,42.52
2022-09-15T09:38:38.861Z,42.52
2022-09-15T09:39:38.818Z,42.72
2022-09-15T09:40:38.889Z,42.52
2022-09-15T09:41:38.797Z,42.52
2022-09-15T09:42:38.786Z,42.63
2022-09-15T09:43:38.775Z,42.52
2022-09-15T09:44:38.769Z,42.63
2022-09-15T09:45:38.754Z,42.63
2022-09-15T09:46:38.882Z,42.82
2022-09-15T09:47:38.730Z,42.82
2022-09-15T09:48:38.720Z,42.92
2022-09-15T09:49:38.708Z,43.12
2022-09-15T09:50:38.708Z,43.02
2022-09-15T09:51:38.688Z,43.32
2022-09-15T09:52:38.681Z,42.92
2022-09-15T09:53:38.693Z,43.02
2022-09-15T09:54:38.673Z,43.00
2022-09-15T09:55:38.643Z,42.92
2022-09-15T09:56:38.651Z,42.71
2022-09-15T09:57:40.714Z,42.71
2022-09-15T09:58:38.610Z,42.43
2022-09-15T09:59:38.599Z,42.43
2022-09-15T10:00:38.588Z,42.82
2022-09-15T10:01:38.611Z,42.60
2022-09-15T10:02:38.578Z,42.80
2022-09-15T10:03:38.554Z,42.71
2022-09-15T10:04:38.573Z,41.61
2022-09-15T10:05:38.532Z,41.89
2022-09-15T10:06:38.521Z,42.19
2022-09-15T10:07:38.510Z,42.49
2022-09-15T10:08:38.514Z,42.29
2022-09-15T10:09:38.514Z,41.87
2022-09-15T10:10:38.478Z,41.67
2022-09-15T10:11:38.466Z,41.38
2022-09-15T10:12:38.455Z,41.38
2022-09-15T10:13:38.444Z,40.98
2022-09-15T10:14:38.440Z,41.08
2022-09-15T10:15:38.421Z,41.38
2022-09-15T10:16:38.456Z,40.56
2022-09-15T10:17:38.400Z,40.66
2022-09-15T10:18:38.389Z,40.76
2022-09-15T10:19:38.380Z,40.47
2022-09-15T10:20:38.372Z,40.34
2022-09-15T10:21:38.355Z,39.95
2022-09-15T10:22:38.345Z,40.03
2022-09-15T10:23:38.334Z,39.81
2022-09-15T10:24:38.322Z,39.42
2022-09-15T10:26:00.101Z,40.41
2022-09-15T10:26:39.321Z,39.72
2022-09-15T10:27:38.290Z,39.81
2022-09-15T10:28:38.281Z,39.75
2022-09-15T10:29:38.267Z,40.05
2022-09-15T10:30:38.256Z,40.03
2022-09-15T10:31:38.307Z,40.03
2022-09-15T10:32:38.242Z,39.95
2022-09-15T10:33:38.223Z,40.45
2022-09-15T10:34:38.214Z,40.34
2022-09-15T10:35:38.201Z,40.15
2022-09-15T10:36:38.190Z,40.45
2022-09-15T10:37:38.180Z,40.55
2022-09-15T10:38:38.192Z,40.37
2022-09-15T10:39:38.158Z,40.25
2022-09-15T10:40:38.149Z,40.34
2022-09-15T10:41:38.156Z,40.47
2022-09-15T10:42:38.124Z,40.55
2022-09-15T10:43:38.113Z,39.75
2022-09-15T10:44:38.108Z,39.65
2022-09-15T10:45:38.140Z,39.75
2022-09-15T10:46:39.446Z,40.42
2022-09-15T10:47:38.070Z,39.30
2022-09-15T10:48:38.062Z,38.51
2022-09-15T10:49:38.047Z,38.77
2022-09-15T10:50:38.042Z,37.88
2022-09-15T10:51:38.028Z,37.87
2022-09-15T10:52:38.016Z,37.90
2022-09-15T10:53:38.005Z,37.80
2022-09-15T10:54:37.993Z,38.69
2022-09-15T10:55:52.164Z,38.51
2022-09-15T10:56:38.980Z,39.11
2022-09-15T10:57:38.057Z,38.43
2022-09-15T10:58:39.941Z,38.29
2022-09-15T10:59:37.938Z,38.90
2022-09-15T11:00:37.999Z,38.63
2022-09-15T11:01:37.917Z,38.82
2022-09-15T11:02:37.911Z,38.51
2022-09-15T11:03:37.894Z,37.88
2022-09-15T11:04:37.885Z,37.96
2022-09-15T11:05:37.873Z,37.37
2022-09-15T11:06:37.862Z,37.47
2022-09-15T11:07:37.851Z,37.45
2022-09-15T11:08:37.846Z,37.37
2022-09-15T11:09:37.829Z,37.59
2022-09-15T11:10:37.819Z,37.49
2022-09-15T11:11:37.809Z,37.88
2022-09-15T11:12:37.797Z,38.29
2022-09-15T11:13:37.813Z,38.69
2022-09-15T11:14:37.782Z,38.71
2022-09-15T11:15:37.770Z,38.61
2022-09-15T11:16:37.797Z,38.41
2022-09-15T11:17:37.742Z,38.92
2022-09-15T11:18:37.738Z,39.42
2022-09-15T11:19:37.744Z,38.82
2022-09-15T11:20:37.717Z,38.65
2022-09-15T11:21:37.702Z,39.64
2022-09-15T11:22:37.688Z,39.83
2022-09-15T11:23:37.690Z,39.95
2022-09-15T11:24:37.668Z,39.56
2022-09-15T11:25:37.655Z,39.75
2022-09-15T11:26:37.649Z,39.73
2022-09-15T11:27:37.635Z,39.75
2022-09-15T11:28:37.624Z,40.03
2022-09-15T11:29:37.717Z,40.15
2022-09-15T11:30:37.601Z,39.75
2022-09-15T11:31:37.759Z,39.85
2022-09-15T11:32:37.599Z,40.05
2022-09-15T11:33:37.569Z,39.95
2022-09-15T11:34:37.557Z,39.95
2022-09-15T11:35:37.547Z,39.75
2022-09-15T11:36:37.536Z,39.95
2022-09-15T11:37:37.526Z,40.05
2022-09-15T11:38:37.521Z,40.05
2022-09-15T11:39:37.504Z,39.75
2022-09-15T11:40:37.491Z,39.83
2022-09-15T11:41:37.483Z,39.85
2022-09-15T11:42:37.471Z,38.82
2022-09-15T11:43:37.461Z,39.22
2022-09-15T11:44:37.493Z,39.42
2022-09-15T11:45:37.455Z,38.92
2022-09-15T11:46:37.581Z,38.61
2022-09-15T11:47:37.415Z,38.71
2022-09-15T11:48:37.406Z,38.81
2022-09-15T11:49:37.394Z,38.51
2022-09-15T11:50:37.389Z,38.82
2022-09-15T11:51:37.376Z,38.63
2022-09-15T11:52:37.361Z,38.73
2022-09-15T11:53:37.353Z,38.92
2022-09-15T11:54:37.339Z,38.92
2022-09-15T11:55:37.332Z,39.12
2022-09-15T11:56:37.325Z,39.32
2022-09-15T11:57:37.308Z,39.72
2022-09-15T11:58:37.297Z,39.34
2022-09-15T11:59:37.286Z,38.84
2022-09-15T12:00:37.276Z,39.34
2022-09-15T12:01:37.337Z,39.56
2022-09-15T12:02:37.320Z,39.73
2022-09-15T12:03:37.242Z,40.23
2022-09-15T12:04:37.230Z,40.23
2022-09-15T12:05:37.220Z,39.64
2022-09-15T12:06:38.499Z,39.83
2022-09-15T12:07:37.199Z,40.34
2022-09-15T12:08:37.193Z,39.95
2022-09-15T12:09:37.176Z,40.05
2022-09-15T12:10:37.165Z,39.95
2022-09-15T12:11:37.170Z,39.85
2022-09-15T12:12:37.144Z,39.75
2022-09-15T12:13:37.134Z,39.75
2022-09-15T12:14:37.128Z,39.56
2022-09-15T12:15:37.178Z,39.67
2022-09-15T12:16:37.099Z,40.05
2022-09-15T12:17:37.107Z,39.67
2022-09-15T12:18:40.122Z,39.77
2022-09-15T12:19:37.070Z,39.97
2022-09-15T12:20:37.062Z,40.07
2022-09-15T12:21:37.045Z,39.87
2022-09-15T12:22:37.035Z,39.97
2022-09-15T12:23:37.022Z,39.87
2022-09-15T12:24:37.012Z,40.26
2022-09-15T12:25:37.001Z,39.77
2022-09-15T12:26:37.001Z,39.67
2022-09-15T12:27:36.980Z,39.67
2022-09-15T12:28:36.971Z,39.67
2022-09-15T12:29:41.144Z,39.87
2022-09-15T12:30:37.946Z,39.77
2022-09-15T12:31:37.043Z,39.87
2022-09-15T12:32:36.932Z,40.17
2022-09-15T12:33:36.932Z,40.17
2022-09-15T12:34:36.903Z,40.58
2022-09-15T12:35:36.891Z,40.47
2022-09-15T12:36:36.886Z,40.39
2022-09-15T12:37:36.871Z,40.29
2022-09-15T12:38:36.874Z,40.39
2022-09-15T12:39:36.847Z,40.09
2022-09-15T12:40:36.970Z,40.48
2022-09-15T12:41:36.825Z,40.09
2022-09-15T12:42:36.815Z,40.48
2022-09-15T12:43:36.804Z,40.68
2022-09-15T12:44:36.799Z,41.08
2022-09-15T12:45:36.782Z,40.98
2022-09-15T12:46:36.860Z,40.41
2022-09-15T12:47:36.761Z,40.58
2022-09-15T12:48:36.750Z,40.80
2022-09-15T12:49:36.769Z,40.60
2022-09-15T12:50:36.749Z,40.90
2022-09-15T12:51:36.716Z,40.90
2022-09-15T12:52:36.705Z,40.60
2022-09-15T12:53:36.702Z,40.31